Gouverneur, NY (13642)

1:07 PM EDT on August 27, 2014 (GMT -0400)
Village of Gouverneur (Barnes St.) | Change Station
CLOSE
Current Station
Personal Weather Station
Location: Gouverneur, NY
Elevation: 433 ft
Nearby Weather Stations

Elev 433 ft 44.34 °N, 75.47 °W | Updated 10 minutes ago

Partly Cloudy
Partly Cloudy
79.0 °F
Feels Like 83 °F
N
4.2
Wind Variable Wind from West

Today
High -- | Low -- °F
--% Chance of Precip.
Yesterday
High -- | Low -- °F
Precip. -- in
6:18 AM 7:46 PM
Waxing Crescent, 4% visible
Pressure 29.97 in
Visibility 8.0 miles
Clouds Clear
Heat Index 83 °F
Dew Point 75 °F
Humidity 88%
Rainfall 0.00 in
Snow Depth Not available.
UV 9 out of 12
Pollen 8.50 out of 12
Air Quality Not available.
Flu Activity Not available.
METAR KGTB 271658Z AUTO 26008KT 230V300 8SM CLR 24/12 A2998 RMK AO2 SLP149 T02440120

More Conditions Fewer Conditions

Pressure 29.97 in
Visibility 8.0 miles
Clouds Clear
Heat Index 83 °F
Dew Point 75 °F
Humidity 88%
Rainfall 0.00 in
Snow Depth Not available.
UV 9 out of 12
Pollen 8.50 out of 12
Air Quality Not available.
Flu Activity Not available.
METAR KGTB 271658Z AUTO 26008KT 230V300 8SM CLR 24/12 A2998 RMK AO2 SLP149 T02440120

More Conditions Fewer Conditions

10-Day Weather Forecast

Almanac

Astronomy

Aug. 27, 2014 Rise Set
Actual Time 6:18 AM EDT 7:46 PM EDT
Civil Twilight 5:48 AM EDT 8:16 PM EDT
Nautical Twilight 5:11 AM EDT 8:53 PM EDT
Astronomical Twilight 4:32 AM EDT 9:32 PM EDT
Moon 8:18 AM EDT 8:30 PM EDT
Length of Visible Light 14h 28m
Length of Day
13h 28m
Tomorrow will be 2m 53s shorter.
Waxing Crescent, 4% of the Moon is Illuminated
Today
Waxing Crescent
Sep 2
First Quarter
Sep 8
Full
Sep 15
Last Quarter
Sep 24
New

Today's Extremes

State Highs State Lows

Community

WunderPhotos

Upload Photos

1,747,727 photos uploaded!

Nearby

Air Quality

  Air Quality AQ Index Pollutant
Wednesday Good
OZONE
Wednesday Good
PM2.5

Snow Depth

Station Depth Elevation
No new snow has been reported.

Earthquake Activity

City Distance Mag. Time & Date
No recent earthquake activity has been reported nearby.
Minimum magnitude displayed is 2.5.

Coastal Water Temperatures

Place Temperature
Alexandria Bay, NY 70.0 °F
Ogdensburg, NY 64.9 °F

Nearby Weather Stations